Messwerte N’Djamena

Temperatur

Temperatur
°C
1573750800 18.00 18.00 32
1573754400 19.00 19.00 29
1573758000 20.00 20.00 29
1573761600 21.00 21.00 26
1573765200 22.00 22.00 25
1573768800 23.00 23.00
1573772400 0.00 0.00 24
1573776000 1.00 1.00 23
1573779600 2.00 2.00
1573783200 3.00 3.00 21
1573786800 4.00 4.00 20
1573790400 5.00 5.00 20
1573794000 6.00 6.00 19
1573797600 7.00 7.00 21
1573801200 8.00 8.00 26
1573804800 9.00 9.00 30
1573808400 10.00 10.00 33
1573812000 11.00 11.00 35
1573815600 12.00 12.00 37
1573819200 13.00 13.00 38
1573822800 14.00 14.00 38
1573826400 15.00 15.00
1573830000 16.00 16.00 37
1573833600 17.00 17.00 35

Aktuellste Messwerte

Wettercharakter
Wetter: recht sonnig
Temperatur
35 °C
Feuchtigkeit
15 %
Wind
5 km/hWindrichtung: Nord
Luftdruck
1006 hPa
Messzeit: 15. November 2019, 17.00Datenquelle: METAR

Weitere Messstationen in der Nähe

Messstation Temperatur Entfernung
Garoua 34 °C 360 km
Sarh 33 °C 493 km

Wind

Windrichtung Böen Mittelwind
° km/h km/h
1573750800 18.00 17.00 - 18.00 360° 10
1573754400 19.00 18.00 - 19.00 350° 5
1573758000 20.00 19.00 - 20.00 320° 10
1573761600 21.00 20.00 - 21.00 320° 5
1573765200 22.00 21.00 - 22.00 320° 5
1573768800 23.00 22.00 - 23.00
1573772400 0.00 23.00 - 0.00 40° 5
1573776000 1.00 0.00 - 1.00 50° 5
1573779600 2.00 1.00 - 2.00
1573783200 3.00 2.00 - 3.00 20° 5
1573786800 4.00 3.00 - 4.00 360° 5
1573790400 5.00 4.00 - 5.00 40° 5
1573794000 6.00 5.00 - 6.00 40° 5
1573797600 7.00 6.00 - 7.00 20° 10
1573801200 8.00 7.00 - 8.00 40° 20
1573804800 9.00 8.00 - 9.00 50° 20
1573808400 10.00 9.00 - 10.00 40° 25
1573812000 11.00 10.00 - 11.00 30° 25
1573815600 12.00 11.00 - 12.00 30° 20
1573819200 13.00 12.00 - 13.00 20° 10
1573822800 14.00 13.00 - 14.00 350° 20
1573826400 15.00 14.00 - 15.00
1573830000 16.00 15.00 - 16.00 350° 10
1573833600 17.00 16.00 - 17.00 350° 5

Ihre Wetterstation

Fehlt Ihre Wetterstation auf unserem Portal?

Schreiben Sie an network@meteonews.ch

Klima

Wann ist es am wärmsten? Wann regnet es am wenigsten? Unsere Klimadaten geben Auskunft.